createdAt,value
2023-02-22T00:01:08.842Z,100691.91
2023-02-22T00:03:39.543Z,100692.63
2023-02-22T00:06:08.531Z,100688.44
2023-02-22T00:08:39.027Z,100680.53
2023-02-22T00:11:10.751Z,100680.81
2023-02-22T00:13:39.673Z,100687.75
2023-02-22T00:16:11.428Z,100687.66
2023-02-22T00:18:41.683Z,100686.53
2023-02-22T00:21:10.802Z,100688.31
2023-02-22T00:23:43.542Z,100683.91
2023-02-22T00:26:11.643Z,100671.25
2023-02-22T00:28:39.906Z,100679.31
2023-02-22T00:31:10.513Z,100667.22
2023-02-22T00:33:47.496Z,100671.09
2023-02-22T00:36:20.673Z,100669.72
2023-02-22T00:38:50.032Z,100683.06
2023-02-22T00:41:18.376Z,100671.72
2023-02-22T00:43:46.933Z,100674.75
2023-02-22T00:46:15.284Z,100670.31
2023-02-22T00:48:44.511Z,100667.41
2023-02-22T00:51:12.284Z,100670.72
2023-02-22T00:53:41.790Z,100657.69
2023-02-22T00:56:09.862Z,100659.78
2023-02-22T00:58:37.712Z,100654.38
2023-02-22T01:01:05.472Z,100656.84
2023-02-22T01:03:33.106Z,100650.88
2023-02-22T01:06:02.325Z,100656.97
2023-02-22T01:08:31.355Z,100655.47
2023-02-22T01:10:59.180Z,100646.22
2023-02-22T01:13:26.941Z,100643.16
2023-02-22T01:15:56.648Z,100641.50
2023-02-22T01:18:25.973Z,100643.69
2023-02-22T01:20:53.859Z,100636.50
2023-02-22T01:23:22.691Z,100637.06
2023-02-22T01:25:54.176Z,100640.25
2023-02-22T01:28:22.391Z,100642.31
2023-02-22T01:30:50.636Z,100647.69
2023-02-22T01:33:18.555Z,100641.47
2023-02-22T01:35:46.829Z,100634.66
2023-02-22T01:38:16.078Z,100634.38
2023-02-22T01:40:48.696Z,100628.97
2023-02-22T01:43:20.223Z,100638.09
2023-02-22T01:45:55.478Z,100626.13
2023-02-22T01:48:27.231Z,100625.56
2023-02-22T01:50:58.813Z,100624.81
2023-02-22T01:53:30.205Z,100620.88
2023-02-22T01:56:00.951Z,100617.59
2023-02-22T01:58:29.729Z,100615.16
2023-02-22T02:00:57.919Z,100606.88
2023-02-22T02:03:29.749Z,100609.38
2023-02-22T02:05:59.894Z,100610.75
2023-02-22T02:08:33.081Z,100600.34
2023-02-22T02:11:03.422Z,100603.56
2023-02-22T02:13:30.978Z,100597.19
2023-02-22T02:15:59.419Z,100598.41
2023-02-22T02:18:28.451Z,100602.44
2023-02-22T02:21:26.804Z,100593.59
2023-02-22T02:24:13.402Z,100594.94
2023-02-22T02:27:03.578Z,100594.41
2023-02-22T02:30:04.902Z,100590.53
2023-02-22T02:32:46.406Z,100590.66
2023-02-22T02:35:21.626Z,100589.25
2023-02-22T02:37:55.161Z,100589.78
2023-02-22T02:40:28.708Z,100586.63
2023-02-22T02:43:02.002Z,100586.19
2023-02-22T02:45:33.605Z,100585.09
2023-02-22T02:48:03.618Z,100583.06
2023-02-22T02:50:34.842Z,100583.59
2023-02-22T02:53:04.098Z,100590.38
2023-02-22T02:55:35.056Z,100580.53
2023-02-22T02:58:04.633Z,100579.28
2023-02-22T03:00:39.373Z,100578.59
2023-02-22T03:03:20.157Z,100575.44
2023-02-22T03:06:03.327Z,100569.75
2023-02-22T03:08:35.585Z,100570.31
2023-02-22T03:11:14.939Z,100564.34
2023-02-22T03:13:59.296Z,100566.16
2023-02-22T03:16:33.456Z,100554.53
2023-02-22T03:19:07.529Z,100561.16
2023-02-22T03:21:43.445Z,100549.53
2023-02-22T03:24:14.962Z,100560.47
2023-02-22T03:26:45.879Z,100554.66
2023-02-22T03:29:16.071Z,100554.50
2023-02-22T03:31:48.428Z,100552.97
2023-02-22T03:34:22.371Z,100557.69
2023-02-22T03:36:55.871Z,100547.59
2023-02-22T03:39:31.473Z,100550.06
2023-02-22T03:42:02.082Z,100548.66
2023-02-22T03:44:30.892Z,100548.34
2023-02-22T03:47:01.959Z,100545.34
2023-02-22T03:49:34.918Z,100541.94
2023-02-22T03:52:03.776Z,100542.22
2023-02-22T03:54:32.318Z,100543.69
2023-02-22T03:57:02.412Z,100543.66
2023-02-22T03:59:30.239Z,100543.03
2023-02-22T04:01:58.927Z,100541.91
2023-02-22T04:04:27.305Z,100534.78
2023-02-22T04:06:57.352Z,100546.41
2023-02-22T04:09:28.808Z,100540.69
2023-02-22T04:18:18.955Z,100535.50
2023-02-22T04:20:47.546Z,100536.47
2023-02-22T04:23:17.672Z,100536.78
2023-02-22T04:25:45.610Z,100532.88
2023-02-22T04:28:14.164Z,100530.72
2023-02-22T04:30:44.218Z,100536.81
2023-02-22T04:33:16.639Z,100530.84
2023-02-22T04:35:45.278Z,100527.69
2023-02-22T04:38:13.512Z,100532.03
2023-02-22T04:40:43.044Z,100528.00
2023-02-22T04:43:10.640Z,100532.28
2023-02-22T04:45:38.758Z,100525.81
2023-02-22T04:48:07.817Z,100528.91
2023-02-22T04:54:04.072Z,100525.13
2023-02-22T05:00:15.625Z,100526.03
2023-02-22T05:03:35.309Z,100522.56
2023-02-22T05:06:03.657Z,100514.63
2023-02-22T05:08:31.510Z,100520.03
2023-02-22T05:10:59.575Z,100503.28
2023-02-22T05:13:29.759Z,100516.31
2023-02-22T05:15:57.932Z,100509.41
2023-02-22T05:18:25.891Z,100513.66
2023-02-22T05:20:56.990Z,100507.72
2023-02-22T05:23:24.695Z,100509.66
2023-02-22T05:25:53.737Z,100512.00
2023-02-22T05:28:22.052Z,100516.59
2023-02-22T05:30:50.973Z,100511.00
2023-02-22T05:33:18.531Z,100508.22
2023-02-22T05:35:46.261Z,100497.16
2023-02-22T05:38:15.194Z,100506.28
2023-02-22T05:40:43.813Z,100499.06
2023-02-22T05:43:11.818Z,100502.69
2023-02-22T05:45:39.397Z,100497.41
2023-02-22T05:48:08.747Z,100500.75
2023-02-22T05:50:36.615Z,100501.88
2023-02-22T05:53:05.889Z,100492.44
2023-02-22T05:55:33.576Z,100498.13
2023-02-22T05:58:01.917Z,100497.41
2023-02-22T06:00:32.005Z,100508.09
2023-02-22T06:03:01.566Z,100498.50
2023-02-22T06:05:31.747Z,100500.03
2023-02-22T06:08:00.507Z,100499.91
2023-02-22T06:10:29.517Z,100498.78
2023-02-22T06:12:58.093Z,100499.06
2023-02-22T06:15:26.779Z,100497.41
2023-02-22T06:17:55.621Z,100501.97
2023-02-22T06:20:24.671Z,100495.19
2023-02-22T06:22:55.156Z,100497.97
2023-02-22T06:25:24.956Z,100503.38
2023-02-22T06:27:52.438Z,100510.31
2023-02-22T06:30:22.830Z,100509.50
2023-02-22T06:32:50.652Z,100506.34
2023-02-22T06:35:18.283Z,100513.41
2023-02-22T06:37:46.075Z,100511.00
2023-02-22T06:40:15.738Z,100506.03
2023-02-22T06:42:43.273Z,100511.13
2023-02-22T06:45:11.322Z,100518.47
2023-02-22T06:47:40.311Z,100511.13
2023-02-22T06:50:09.280Z,100514.88
2023-02-22T06:52:36.765Z,100517.06
2023-02-22T06:55:04.385Z,100514.00
2023-02-22T06:57:33.279Z,100520.69
2023-02-22T07:00:00.765Z,100522.34
2023-02-22T07:02:28.254Z,100516.13
2023-02-22T07:04:55.734Z,100529.28
2023-02-22T07:07:25.118Z,100526.47
2023-02-22T07:09:52.620Z,100536.00
2023-02-22T07:12:20.152Z,100537.00
2023-02-22T07:14:49.154Z,100541.69
2023-02-22T07:17:16.711Z,100539.91
2023-02-22T07:19:44.170Z,100545.28
2023-02-22T07:22:11.672Z,100543.34
2023-02-22T07:24:40.921Z,100546.06
2023-02-22T07:27:08.410Z,100555.09
2023-02-22T07:29:36.478Z,100550.25
2023-02-22T07:32:05.481Z,100558.00
2023-02-22T07:34:32.966Z,100555.38
2023-02-22T07:37:00.461Z,100552.44
2023-02-22T07:39:28.102Z,100559.63
2023-02-22T07:41:55.638Z,100557.28
2023-02-22T07:44:23.101Z,100564.19
2023-02-22T07:46:51.043Z,100561.28
2023-02-22T07:49:20.176Z,100563.91
2023-02-22T07:51:47.711Z,100558.34
2023-02-22T07:54:15.230Z,100565.19
2023-02-22T07:56:46.891Z,100557.22
2023-02-22T07:59:14.666Z,100566.34
2023-02-22T08:01:42.536Z,100561.78
2023-02-22T08:04:10.070Z,100568.66
2023-02-22T08:06:38.930Z,100562.97
2023-02-22T08:09:06.403Z,100570.56
2023-02-22T08:11:34.090Z,100565.59
2023-02-22T08:14:01.551Z,100569.84
2023-02-22T08:16:29.112Z,100559.63
2023-02-22T08:18:56.667Z,100560.91
2023-02-22T08:21:24.176Z,100558.56
2023-02-22T08:23:54.379Z,100556.91
2023-02-22T08:26:21.982Z,100558.88
2023-02-22T08:28:49.717Z,100551.91
2023-02-22T08:31:17.637Z,100561.88
2023-02-22T08:33:48.791Z,100548.78
2023-02-22T08:36:16.336Z,100549.09
2023-02-22T08:38:43.833Z,100553.81
2023-02-22T08:41:12.872Z,100547.31
2023-02-22T08:43:40.403Z,100553.34
2023-02-22T08:46:08.045Z,100553.84
2023-02-22T08:48:35.569Z,100557.19
2023-02-22T08:51:03.027Z,100558.53
2023-02-22T08:53:32.715Z,100554.78
2023-02-22T08:56:00.203Z,100553.59
2023-02-22T08:58:29.082Z,100558.72
2023-02-22T09:00:56.575Z,100560.38
2023-02-22T09:03:24.186Z,100548.91
2023-02-22T09:05:52.864Z,100554.78
2023-02-22T09:08:20.376Z,100554.00
2023-02-22T09:10:48.025Z,100552.78
2023-02-22T09:13:15.552Z,100544.09
2023-02-22T09:15:44.452Z,100547.31
2023-02-22T09:18:14.534Z,100547.22
2023-02-22T09:20:42.831Z,100544.94
2023-02-22T09:23:10.611Z,100536.44
2023-02-22T09:25:38.777Z,100541.41
2023-02-22T09:28:06.687Z,100540.22
2023-02-22T09:30:35.951Z,100530.03
2023-02-22T09:33:06.760Z,100536.63
2023-02-22T09:35:36.153Z,100538.31
2023-02-22T09:38:06.116Z,100529.38
2023-02-22T09:40:40.910Z,100529.38
2023-02-22T09:43:32.289Z,100534.75
2023-02-22T09:46:11.932Z,100524.31
2023-02-22T09:48:52.732Z,100529.09
2023-02-22T09:51:21.651Z,100517.47
2023-02-22T09:53:50.685Z,100522.31
2023-02-22T09:56:20.886Z,100525.28
2023-02-22T09:58:52.295Z,100522.78
2023-02-22T10:01:27.114Z,100515.38
2023-02-22T10:04:01.662Z,100514.38
2023-02-22T10:06:32.220Z,100524.00
2023-02-22T10:09:02.782Z,100520.00
2023-02-22T10:11:39.050Z,100524.34
2023-02-22T10:14:23.220Z,100524.38
2023-02-22T10:16:55.572Z,100525.13
2023-02-22T10:19:29.105Z,100521.00
2023-02-22T10:22:09.510Z,100524.94
2023-02-22T10:24:45.471Z,100516.72
2023-02-22T10:27:17.576Z,100519.81
2023-02-22T10:29:47.498Z,100515.34
2023-02-22T10:32:20.569Z,100515.56
2023-02-22T10:34:52.755Z,100510.44
2023-02-22T10:37:25.429Z,100523.00
2023-02-22T10:39:56.432Z,100515.25
2023-02-22T10:42:26.491Z,100517.22
2023-02-22T10:44:55.118Z,100514.88
2023-02-22T10:47:22.965Z,100517.06
2023-02-22T10:49:53.556Z,100508.81
2023-02-22T10:52:25.893Z,100511.25
2023-02-22T10:55:00.975Z,100501.84
2023-02-22T10:57:36.979Z,100508.31
2023-02-22T11:00:20.267Z,100499.03
2023-02-22T11:02:53.417Z,100497.53
2023-02-22T11:05:31.411Z,100505.44
2023-02-22T11:08:24.877Z,100492.38
2023-02-22T11:10:53.921Z,100488.66
2023-02-22T11:13:26.874Z,100487.03
2023-02-22T11:15:54.969Z,100481.50
2023-02-22T11:18:28.087Z,100475.56
2023-02-22T11:21:07.792Z,100481.66
2023-02-22T11:23:36.179Z,100466.47
2023-02-22T11:26:07.737Z,100472.09
2023-02-22T11:28:35.618Z,100459.09
2023-02-22T11:31:15.512Z,100453.97
2023-02-22T11:33:52.455Z,100455.94
2023-02-22T11:36:43.339Z,100440.59
2023-02-22T11:39:23.040Z,100438.06
2023-02-22T11:41:50.610Z,100437.53
2023-02-22T11:44:25.271Z,100440.59
2023-02-22T11:46:55.600Z,100443.66
2023-02-22T11:49:24.806Z,100441.59
2023-02-22T11:52:07.399Z,100428.25
2023-02-22T11:54:58.023Z,100427.88
2023-02-22T11:57:46.270Z,100434.31
2023-02-22T12:00:24.577Z,100423.25
2023-02-22T12:03:03.761Z,100423.09
2023-02-22T12:05:40.484Z,100415.84
2023-02-22T12:08:20.434Z,100410.25
2023-02-22T12:10:57.538Z,100420.41
2023-02-22T12:13:34.023Z,100409.22
2023-02-22T12:16:12.967Z,100412.53
2023-02-22T12:18:46.115Z,100410.88
2023-02-22T12:21:16.794Z,100406.19
2023-02-22T12:23:52.445Z,100411.44
2023-02-22T12:26:25.719Z,100410.88
2023-02-22T12:28:59.299Z,100402.97
2023-02-22T12:31:29.624Z,100394.03
2023-02-22T12:34:02.239Z,100392.66
2023-02-22T12:36:35.620Z,100398.56
2023-02-22T12:39:13.138Z,100397.41
2023-02-22T12:41:44.856Z,100389.56
2023-02-22T12:44:20.157Z,100387.72
2023-02-22T12:46:50.263Z,100388.88
2023-02-22T12:49:22.477Z,100395.97
2023-02-22T12:51:55.080Z,100397.31
2023-02-22T12:54:29.332Z,100390.66
2023-02-22T12:56:58.653Z,100383.88
2023-02-22T12:59:30.598Z,100382.16
2023-02-22T13:02:01.865Z,100379.97
2023-02-22T13:04:31.779Z,100377.59
2023-02-22T13:07:12.620Z,100371.56
2023-02-22T13:09:55.802Z,100367.44
2023-02-22T13:12:30.267Z,100377.28
2023-02-22T13:15:04.800Z,100360.25
2023-02-22T13:17:37.638Z,100362.53
2023-02-22T13:20:10.874Z,100361.34
2023-02-22T13:22:42.091Z,100362.22
2023-02-22T13:25:16.238Z,100355.44
2023-02-22T13:27:48.648Z,100354.19
2023-02-22T13:30:20.865Z,100348.81
2023-02-22T13:33:18.679Z,100341.09
2023-02-22T13:35:57.329Z,100343.47
2023-02-22T13:38:39.206Z,100340.81
2023-02-22T13:41:20.828Z,100336.50
2023-02-22T13:44:04.176Z,100337.00
2023-02-22T13:47:00.051Z,100337.50
2023-02-22T13:49:54.538Z,100331.34
2023-02-22T13:52:23.306Z,100330.34
2023-02-22T13:54:54.429Z,100333.03
2023-02-22T13:57:25.822Z,100340.75
2023-02-22T14:00:22.760Z,100337.50
2023-02-22T14:03:02.838Z,100331.34
2023-02-22T14:05:51.384Z,100322.34
2023-02-22T14:08:42.105Z,100326.88
2023-02-22T14:11:57.699Z,100327.44
2023-02-22T14:14:26.637Z,100328.94
2023-02-22T14:17:17.292Z,100325.47
2023-02-22T14:20:16.493Z,100322.78
2023-02-22T14:22:46.936Z,100316.22
2023-02-22T14:25:37.302Z,100316.88
2023-02-22T14:28:06.479Z,100319.75
2023-02-22T14:30:37.211Z,100322.00
2023-02-22T14:33:05.433Z,100317.09
2023-02-22T14:35:49.151Z,100317.91
2023-02-22T14:38:19.119Z,100321.75
2023-02-22T14:40:49.441Z,100316.66
2023-02-22T14:43:19.925Z,100311.50
2023-02-22T14:45:52.980Z,100321.47
2023-02-22T14:48:25.319Z,100313.75
2023-02-22T14:50:54.668Z,100315.78
2023-02-22T14:53:27.105Z,100315.75
2023-02-22T14:55:58.265Z,100310.63
2023-02-22T14:58:31.905Z,100309.22
2023-02-22T15:01:00.873Z,100304.97
2023-02-22T15:03:37.072Z,100309.25
2023-02-22T15:06:06.274Z,100309.25
2023-02-22T15:08:34.452Z,100304.94
2023-02-22T15:11:03.443Z,100302.03
2023-02-22T15:13:34.146Z,100301.47
2023-02-22T15:16:04.384Z,100306.75
2023-02-22T15:18:35.532Z,100303.41
2023-02-22T15:21:10.101Z,100304.44
2023-02-22T15:23:44.363Z,100305.03
2023-02-22T15:26:20.095Z,100299.69
2023-02-22T15:28:48.648Z,100303.47
2023-02-22T15:31:22.654Z,100305.50
2023-02-22T15:33:52.897Z,100307.25
2023-02-22T15:36:22.693Z,100310.41
2023-02-22T15:38:51.279Z,100307.53
2023-02-22T15:41:27.760Z,100305.44
2023-02-22T15:44:03.407Z,100300.81
2023-02-22T15:46:35.058Z,100305.47
2023-02-22T15:49:20.245Z,100300.94
2023-02-22T15:51:51.557Z,100301.41
2023-02-22T15:54:27.037Z,100302.88
2023-02-22T15:56:56.555Z,100310.03
2023-02-22T15:59:30.282Z,100309.59
2023-02-22T16:01:59.907Z,100306.34
2023-02-22T16:04:30.313Z,100306.91
2023-02-22T16:07:04.882Z,100300.56
2023-02-22T16:09:33.213Z,100314.50
2023-02-22T16:12:12.143Z,100304.47
2023-02-22T16:14:44.801Z,100305.81
2023-02-22T16:17:30.594Z,100305.81
2023-02-22T16:19:58.963Z,100303.75
2023-02-22T16:22:29.588Z,100300.59
2023-02-22T16:25:16.639Z,100299.78
2023-02-22T16:27:48.310Z,100300.72
2023-02-22T16:30:25.994Z,100302.31
2023-02-22T16:32:56.674Z,100304.28
2023-02-22T16:35:28.490Z,100308.38
2023-02-22T16:37:57.988Z,100307.69
2023-02-22T16:40:27.490Z,100309.91
2023-02-22T16:42:55.014Z,100306.13
2023-02-22T16:45:23.237Z,100310.97
2023-02-22T16:47:52.588Z,100308.88
2023-02-22T16:50:21.833Z,100309.13
2023-02-22T16:52:49.466Z,100303.38
2023-02-22T16:55:18.758Z,100308.81
2023-02-22T16:57:46.273Z,100312.03
2023-02-22T17:00:17.857Z,100306.03
2023-02-22T17:02:45.969Z,100310.28
2023-02-22T17:05:15.242Z,100312.50
2023-02-22T17:07:44.082Z,100314.34
2023-02-22T17:10:16.373Z,100306.94
2023-02-22T17:12:46.785Z,100312.00
2023-02-22T17:15:22.147Z,100309.81
2023-02-22T17:17:50.335Z,100305.06
2023-02-22T17:20:24.811Z,100312.59
2023-02-22T17:22:53.869Z,100316.84
2023-02-22T17:25:25.417Z,100318.75
2023-02-22T17:27:52.957Z,100310.88
2023-02-22T17:30:23.908Z,100317.84
2023-02-22T17:32:52.453Z,100327.81
2023-02-22T17:35:23.101Z,100325.94
2023-02-22T17:37:50.952Z,100322.34
2023-02-22T17:40:19.874Z,100328.75
2023-02-22T17:42:47.691Z,100326.28
2023-02-22T17:45:15.288Z,100331.22
2023-02-22T17:47:43.288Z,100328.69
2023-02-22T17:50:11.536Z,100332.84
2023-02-22T17:52:39.494Z,100329.81
2023-02-22T17:55:07.541Z,100334.69
2023-02-22T17:57:36.841Z,100331.94
2023-02-22T18:00:12.387Z,100345.56
2023-02-22T18:02:42.543Z,100329.91
2023-02-22T18:05:18.417Z,100337.06
2023-02-22T18:07:46.937Z,100342.91
2023-02-22T18:10:14.992Z,100332.16
2023-02-22T18:12:47.118Z,100333.72
2023-02-22T18:15:17.464Z,100332.97
2023-02-22T18:17:45.660Z,100338.09
2023-02-22T18:20:14.795Z,100333.50
2023-02-22T18:22:44.351Z,100337.50
2023-02-22T18:25:13.701Z,100331.19
2023-02-22T18:27:43.074Z,100334.09
2023-02-22T18:30:13.238Z,100335.38
2023-02-22T18:32:40.831Z,100332.69
2023-02-22T18:35:08.861Z,100338.22
2023-02-22T18:37:36.828Z,100342.00
2023-02-22T18:40:10.311Z,100339.69
2023-02-22T18:42:38.855Z,100334.72
2023-02-22T18:45:08.195Z,100336.28
2023-02-22T18:47:47.546Z,100339.47
2023-02-22T18:50:17.153Z,100341.81
2023-02-22T18:52:48.093Z,100340.69
2023-02-22T18:55:17.206Z,100343.34
2023-02-22T18:57:45.160Z,100339.53
2023-02-22T19:00:17.871Z,100339.38
2023-02-22T19:02:47.034Z,100336.75
2023-02-22T19:05:18.729Z,100334.75
2023-02-22T19:07:46.756Z,100336.31
2023-02-22T19:10:14.474Z,100335.47
2023-02-22T19:12:42.036Z,100329.97
2023-02-22T19:15:11.763Z,100330.28
2023-02-22T19:17:40.629Z,100326.56
2023-02-22T19:20:11.882Z,100329.91
2023-02-22T19:22:39.530Z,100324.53
2023-02-22T19:25:08.062Z,100327.38
2023-02-22T19:27:35.796Z,100321.78
2023-02-22T19:30:04.610Z,100334.22
2023-02-22T19:32:33.766Z,100332.47
2023-02-22T19:35:02.969Z,100330.72
2023-02-22T19:37:35.963Z,100328.06
2023-02-22T19:40:06.705Z,100329.75
2023-02-22T19:42:34.379Z,100330.78
2023-02-22T19:45:09.551Z,100331.00
2023-02-22T19:47:37.377Z,100330.19
2023-02-22T19:50:06.662Z,100326.34
2023-02-22T19:52:38.918Z,100335.75
2023-02-22T19:55:12.447Z,100333.28
2023-02-22T19:57:40.845Z,100336.88
2023-02-22T20:00:12.309Z,100334.28
2023-02-22T20:02:42.694Z,100330.44
2023-02-22T20:05:16.291Z,100335.38
2023-02-22T20:07:46.256Z,100332.25
2023-02-22T20:10:15.946Z,100326.84
2023-02-22T20:12:43.727Z,100333.09
2023-02-22T20:15:11.923Z,100326.66
2023-02-22T20:17:39.559Z,100331.00
2023-02-22T20:20:09.307Z,100341.78
2023-02-22T20:22:36.934Z,100344.53
2023-02-22T20:25:06.382Z,100337.25
2023-02-22T20:27:34.650Z,100344.59
2023-02-22T20:30:02.645Z,100341.28
2023-02-22T20:32:36.199Z,100350.41
2023-02-22T20:35:04.043Z,100348.44
2023-02-22T20:37:33.384Z,100347.13
2023-02-22T20:40:01.674Z,100352.09
2023-02-22T20:45:38.952Z,100345.81
2023-02-22T20:48:06.869Z,100353.44
2023-02-22T20:50:36.058Z,100357.34
2023-02-22T20:53:03.628Z,100354.28
2023-02-22T20:55:31.407Z,100357.06
2023-02-22T20:58:00.410Z,100358.69
2023-02-22T21:00:28.039Z,100356.38
2023-02-22T21:02:56.497Z,100363.34
2023-02-22T21:05:24.077Z,100359.34
2023-02-22T21:07:51.694Z,100359.19
2023-02-22T21:10:20.977Z,100358.06
2023-02-22T21:12:48.651Z,100363.19
2023-02-22T21:15:17.988Z,100359.41
2023-02-22T21:17:47.541Z,100365.34
2023-02-22T21:20:15.416Z,100363.00
2023-02-22T21:22:43.840Z,100367.66
2023-02-22T21:25:13.433Z,100370.97
2023-02-22T21:27:42.143Z,100368.81
2023-02-22T21:30:12.382Z,100368.31
2023-02-22T21:32:41.378Z,100367.31
2023-02-22T21:35:09.851Z,100361.03
2023-02-22T21:37:39.001Z,100363.34
2023-02-22T21:40:11.887Z,100372.59
2023-02-22T21:42:39.572Z,100365.00
2023-02-22T21:45:08.475Z,100370.97
2023-02-22T21:47:36.999Z,100362.97
2023-02-22T21:50:10.485Z,100358.34
2023-02-22T21:52:38.553Z,100362.97
2023-02-22T21:55:07.263Z,100358.97
2023-02-22T21:57:35.036Z,100357.50
2023-02-22T22:00:12.844Z,100356.53
2023-02-22T22:02:40.579Z,100349.75
2023-02-22T22:05:10.245Z,100352.72
2023-02-22T22:07:37.801Z,100354.06
2023-02-22T22:10:06.826Z,100344.94
2023-02-22T22:12:39.431Z,100349.28
2023-02-22T22:15:13.143Z,100353.94
2023-02-22T22:21:55.936Z,100335.06
2023-02-22T22:24:47.074Z,100349.75
2023-02-22T22:27:37.425Z,100360.66
2023-02-22T22:30:53.207Z,100358.19
2023-02-22T22:41:08.670Z,100351.19
2023-02-22T22:46:54.720Z,100360.00
2023-02-22T22:50:02.135Z,100351.75
2023-02-22T22:55:51.845Z,100345.16
2023-02-22T22:58:34.400Z,100345.44
2023-02-22T23:01:28.021Z,100344.09
2023-02-22T23:04:21.966Z,100351.03
2023-02-22T23:07:45.790Z,100350.19
2023-02-22T23:12:21.140Z,100354.28
2023-02-22T23:14:17.047Z,100359.09
2023-02-22T23:17:41.324Z,100358.25
2023-02-22T23:20:38.770Z,100357.38
2023-02-22T23:23:32.806Z,100356.09
2023-02-22T23:27:02.480Z,100356.59
2023-02-22T23:40:50.188Z,100355.75
